Terminal Aerodrome Forecast
Issued by NWS

Home | Current Version | Previous Version | Text Only | Print | Product List | Glossary On
Versions: 1 2 3 4 5 6 7 8 9 10 11 12 13 14
767
FTUS46 KPDT 222320
TAFYKM
TAF
KYKM 222320Z 2300/2324 22007KT P6SM FEW120
     FM230200 28006KT P6SM SCT150
     FM231200 29006KT P6SM FEW080 SCT120
     FM231900 VRB05KT P6SM FEW100 SCT150=

USA.gov is the U.S. government's official web portal to all federal, state and local government web resources and services.